Khania/Souda, Greece
Current Conditions -  °F | °C
As of 12:50 PM on Friday 19 Dec 2014 (Local Time) from LGSA Reporting Station
Scattered Clouds Scattered Clouds  
Wind Chill: 61°   Ceiling: Unl
Heat Index: 61°   Visibility: 6mi
Dew Point: 52°   Wind: 5mph
Humidity: 72%   Direction: 50°NE
Pressure: 30.15"   Gusts: NA
Location:  35.53°N, 24.15°E
Report Text: LGSA 190950Z 05004KT 9999 FEW020 SCT025 16/11 Q1021
Loading
Personal Weather Stations






























Interactive Weather Map New forecast layout! Learn more

10-Day Weather Forecast

Advertisements
Track Severe Weather on mobile